createdAt,value
2022-11-17T00:02:10.103Z,30.8
2022-11-17T00:04:28.494Z,31.1
2022-11-17T00:06:47.201Z,32.3
2022-11-17T00:09:05.535Z,31.2
2022-11-17T00:11:23.961Z,30.5
2022-11-17T00:13:42.888Z,32.5
2022-11-17T00:16:00.941Z,31.6
2022-11-17T00:18:19.094Z,30.6
2022-11-17T00:20:37.303Z,30.9
2022-11-17T00:22:55.561Z,30.6
2022-11-17T00:25:13.779Z,31.1
2022-11-17T00:27:32.074Z,30.9
2022-11-17T00:29:50.343Z,31.9
2022-11-17T00:32:08.431Z,31.5
2022-11-17T00:34:26.652Z,31.3
2022-11-17T00:36:45.014Z,31.4
2022-11-17T00:39:03.015Z,31.4
2022-11-17T00:41:21.584Z,31.3
2022-11-17T00:43:39.441Z,31.9
2022-11-17T00:48:16.034Z,30.4
2022-11-17T00:50:34.117Z,31.5
2022-11-17T00:52:52.321Z,32.1
2022-11-17T00:55:10.604Z,30.9
2022-11-17T00:57:28.750Z,31.5
2022-11-17T00:59:47.039Z,31.8
2022-11-17T01:02:05.462Z,30.9
2022-11-17T01:04:24.231Z,32.4
2022-11-17T01:06:42.281Z,31.2
2022-11-17T01:09:00.470Z,30.4
2022-11-17T01:11:18.737Z,30.8
2022-11-17T01:13:37.148Z,31.1
2022-11-17T01:15:55.229Z,31.4
2022-11-17T01:18:13.337Z,30.9
2022-11-17T01:20:31.931Z,30.9
2022-11-17T01:22:50.584Z,32.5
2022-11-17T01:25:09.018Z,31.4
2022-11-17T01:27:27.238Z,31.7
2022-11-17T01:29:45.172Z,31.3
2022-11-17T01:32:03.476Z,30.8
2022-11-17T01:34:21.718Z,30.6
2022-11-17T01:36:40.078Z,31.3
2022-11-17T01:38:58.077Z,30.8
2022-11-17T01:41:16.339Z,31.6
2022-11-17T01:43:34.788Z,31.7
2022-11-17T01:45:52.773Z,31.4
2022-11-17T01:48:10.958Z,32
2022-11-17T01:52:47.645Z,30.4
2022-11-17T01:55:05.957Z,31.3
2022-11-17T01:57:24.230Z,31.6
2022-11-17T01:59:42.847Z,31.3
2022-11-17T02:02:01.188Z,31.6
2022-11-17T02:04:20.097Z,32.8
2022-11-17T02:06:38.259Z,31.3
2022-11-17T02:08:56.542Z,30.9
2022-11-17T02:11:14.962Z,30.9
2022-11-17T02:13:33.732Z,31.1
2022-11-17T02:15:51.566Z,31.5
2022-11-17T02:18:10.113Z,31.4
2022-11-17T02:20:29.003Z,32.6
2022-11-17T02:22:47.229Z,31.4
2022-11-17T02:25:05.998Z,30.9
2022-11-17T02:27:24.721Z,32.4
2022-11-17T02:29:42.922Z,31.8
2022-11-17T02:32:01.402Z,30.8
2022-11-17T02:34:19.501Z,30.4
2022-11-17T02:36:38.019Z,30.8
2022-11-17T02:38:56.224Z,31.1
2022-11-17T02:41:14.906Z,30.8
2022-11-17T02:43:33.217Z,31.8
2022-11-17T02:45:51.379Z,31.1
2022-11-17T02:48:09.634Z,31.1
2022-11-17T02:50:28.685Z,31.1
2022-11-17T02:52:46.321Z,31.2
2022-11-17T02:55:04.563Z,31.3
2022-11-17T02:57:24.595Z,31.8
2022-11-17T02:59:43.424Z,32.4
2022-11-17T03:02:01.387Z,31.4
2022-11-17T03:04:19.626Z,31.1
2022-11-17T03:06:38.087Z,30.6
2022-11-17T03:08:57.135Z,32.6
2022-11-17T03:13:34.510Z,32.6
2022-11-17T03:15:52.696Z,31.4
2022-11-17T03:18:11.281Z,32.6
2022-11-17T03:22:48.087Z,31
2022-11-17T03:27:25.025Z,31.7
2022-11-17T03:29:43.525Z,30.8
2022-11-17T03:34:20.636Z,32.1
2022-11-17T03:36:39.137Z,30.7
2022-11-17T03:38:57.365Z,30.9
2022-11-17T03:41:15.650Z,30.6
2022-11-17T03:43:34.282Z,30.8
2022-11-17T03:45:52.806Z,31.3
2022-11-17T03:48:44.115Z,31.5
2022-11-17T03:51:02.601Z,30.9
2022-11-17T03:53:20.627Z,31.4
2022-11-17T03:55:38.773Z,30.9
2022-11-17T03:57:57.084Z,31.8
2022-11-17T04:00:15.163Z,31.3
2022-11-17T04:02:33.477Z,31.4
2022-11-17T04:04:51.644Z,30.4
2022-11-17T04:07:09.823Z,31.2
2022-11-17T04:09:28.014Z,31.4
2022-11-17T04:11:46.223Z,31.8
2022-11-17T04:14:04.563Z,31.4
2022-11-17T04:16:22.720Z,31.5
2022-11-17T04:20:59.598Z,30.7
2022-11-17T04:23:18.263Z,32.8
2022-11-17T04:25:36.393Z,31.4
2022-11-17T04:27:54.671Z,30.8
2022-11-17T04:30:13.038Z,30.7
2022-11-17T04:37:09.273Z,32.2
2022-11-17T04:39:27.251Z,31.1
2022-11-17T04:41:45.889Z,30.7
2022-11-17T04:44:04.565Z,33.1
2022-11-17T04:48:41.264Z,31.1
2022-11-17T04:51:00.073Z,32.8
2022-11-17T04:53:18.441Z,31.4
2022-11-17T04:55:36.636Z,30.8
2022-11-17T04:57:54.765Z,30.6
2022-11-17T05:00:13.556Z,30.6
2022-11-17T05:02:32.371Z,32.3
2022-11-17T05:07:08.988Z,30.9
2022-11-17T05:09:27.428Z,31
2022-11-17T05:11:45.581Z,31.2
2022-11-17T05:14:04.435Z,31.1
2022-11-17T05:16:23.032Z,32.6
2022-11-17T05:18:41.329Z,31.6
2022-11-17T05:20:59.741Z,30.8
2022-11-17T05:25:36.595Z,31.1
2022-11-17T05:27:54.684Z,31.1
2022-11-17T05:32:31.323Z,30.6
2022-11-17T05:34:49.815Z,30.9
2022-11-17T05:37:08.315Z,30.9
2022-11-17T05:39:27.057Z,32.9
2022-11-17T05:41:45.761Z,31.4
2022-11-17T05:44:04.127Z,30.6
2022-11-17T05:46:23.101Z,32.7
2022-11-17T05:48:41.232Z,31.6
2022-11-17T05:50:59.954Z,30.4
2022-11-17T05:53:18.007Z,30.8
2022-11-17T05:55:36.449Z,30.6
2022-11-17T05:57:54.905Z,30.6
2022-11-17T06:00:13.092Z,30.8
2022-11-17T06:02:31.258Z,30.9
2022-11-17T06:04:49.475Z,30.9
2022-11-17T06:07:07.987Z,30.4
2022-11-17T06:09:26.448Z,30.5
2022-11-17T06:11:44.563Z,31.4
2022-11-17T06:14:02.923Z,31.1
2022-11-17T06:16:22.560Z,30.4
2022-11-17T06:18:40.839Z,31
2022-11-17T06:20:59.071Z,30.8
2022-11-17T06:23:30.724Z,31.2
2022-11-17T06:25:48.780Z,30.9
2022-11-17T06:28:07.059Z,30.8
2022-11-17T06:30:25.632Z,30.6
2022-11-17T06:32:44.298Z,32.9
2022-11-17T06:35:03.210Z,31.4
2022-11-17T06:37:21.878Z,33.6
2022-11-17T06:39:40.579Z,35.1
2022-11-17T06:41:58.738Z,31.4
2022-11-17T06:44:17.051Z,31
2022-11-17T06:46:35.236Z,30.6
2022-11-17T06:48:53.458Z,30.5
2022-11-17T06:51:11.742Z,31.1
2022-11-17T06:53:30.224Z,30.8
2022-11-17T06:55:48.903Z,32.9
2022-11-17T06:58:07.196Z,32.9
2022-11-17T07:00:25.596Z,30.9
2022-11-17T07:02:44.417Z,32.7
2022-11-17T07:05:02.480Z,31.5
2022-11-17T07:07:20.752Z,31
2022-11-17T07:09:38.886Z,30.9
2022-11-17T07:11:57.262Z,30.6
2022-11-17T07:14:15.474Z,30.4
2022-11-17T07:16:33.606Z,30.8
2022-11-17T07:18:52.014Z,31.3
2022-11-17T07:21:10.365Z,31.2
2022-11-17T07:23:28.318Z,31.4
2022-11-17T07:25:46.560Z,30.8
2022-11-17T07:28:05.137Z,30.1
2022-11-17T07:30:23.977Z,32.7
2022-11-17T07:32:42.066Z,31.5
2022-11-17T07:37:18.521Z,30.9
2022-11-17T07:39:36.867Z,30.3
2022-11-17T07:41:54.965Z,30.4
2022-11-17T07:44:13.485Z,31
2022-11-17T07:46:32.505Z,32.8
2022-11-17T07:48:51.499Z,34.5
2022-11-17T07:51:10.240Z,32.7
2022-11-17T07:53:28.620Z,32.6
2022-11-17T07:55:46.970Z,31.4
2022-11-17T07:58:06.068Z,32.6
2022-11-17T08:02:43.720Z,34.3
2022-11-17T08:05:02.245Z,32
2022-11-17T08:07:21.431Z,32.4
2022-11-17T08:09:39.473Z,31.6
2022-11-17T08:11:57.533Z,30.9
2022-11-17T08:14:15.717Z,30.9
2022-11-17T08:16:34.368Z,31
2022-11-17T08:18:53.178Z,32.8
2022-11-17T08:21:11.338Z,31.4
2022-11-17T08:23:29.579Z,31.1
2022-11-17T08:25:47.804Z,31
2022-11-17T08:28:06.002Z,31.8
2022-11-17T08:30:24.272Z,31.5
2022-11-17T08:32:42.512Z,31.8
2022-11-17T08:35:01.468Z,31.4
2022-11-17T08:37:18.956Z,31.9
2022-11-17T08:39:37.268Z,32
2022-11-17T08:41:55.494Z,32.7
2022-11-17T08:44:13.780Z,32.1
2022-11-17T08:46:32.069Z,32.3
2022-11-17T08:48:53.860Z,32.6
2022-11-17T08:51:08.782Z,31.7
2022-11-17T08:53:27.301Z,32.9
2022-11-17T08:55:46.082Z,32.6
2022-11-17T08:58:04.481Z,31.7
2022-11-17T09:00:22.757Z,32.7
2022-11-17T09:02:40.995Z,33.1
2022-11-17T09:04:59.423Z,33.1
2022-11-17T09:07:18.000Z,33.6
2022-11-17T09:09:57.308Z,33.3
2022-11-17T09:12:15.937Z,33
2022-11-17T09:14:34.703Z,33.3
2022-11-17T09:16:53.108Z,31.4
2022-11-17T09:19:11.336Z,33.6
2022-11-17T09:21:29.747Z,34
2022-11-17T09:23:48.155Z,34.6
2022-11-17T09:28:25.434Z,33.4
2022-11-17T09:33:02.148Z,32.6
2022-11-17T09:35:18.721Z,29
2022-11-17T09:37:35.459Z,29.8
2022-11-17T09:39:52.373Z,29.8
2022-11-17T09:42:08.896Z,30.1
2022-11-17T09:44:25.597Z,29.3
2022-11-17T09:46:42.328Z,29.9
2022-11-17T09:49:16.844Z,29.3
2022-11-17T09:51:33.283Z,29.3
2022-11-17T09:53:49.865Z,29.6
2022-11-17T09:56:06.477Z,29
2022-11-17T09:58:23.030Z,29.4
2022-11-17T10:00:39.590Z,29.1
2022-11-17T10:02:56.326Z,29.4
2022-11-17T10:05:13.555Z,29.4
2022-11-17T10:07:29.985Z,30.1
2022-11-17T10:09:46.569Z,29.1
2022-11-17T10:12:03.223Z,29.3
2022-11-17T10:14:19.975Z,28.8
2022-11-17T10:16:36.695Z,29.4
2022-11-17T10:18:53.385Z,29.5
2022-11-17T10:21:10.133Z,29.2
2022-11-17T10:23:26.850Z,29.1
2022-11-17T10:25:43.584Z,29.6
2022-11-17T10:28:00.096Z,29.1
2022-11-17T10:30:17.055Z,29.3
2022-11-17T10:32:33.908Z,29.1
2022-11-17T10:34:50.634Z,29.4
2022-11-17T10:37:07.508Z,29.1
2022-11-17T10:39:24.696Z,29.1
2022-11-17T10:41:41.137Z,29.3
2022-11-17T10:43:57.998Z,29
2022-11-17T10:46:14.761Z,29.6
2022-11-17T10:48:31.677Z,29.2
2022-11-17T10:50:48.697Z,29.3
2022-11-17T10:55:21.747Z,29.6
2022-11-17T10:57:38.403Z,29.4
2022-11-17T10:59:56.976Z,29.5
2022-11-17T11:02:11.482Z,29.1
2022-11-17T11:04:28.279Z,29.3
2022-11-17T11:06:45.292Z,29.6
2022-11-17T11:09:02.177Z,29.4
2022-11-17T11:11:19.013Z,29.4
2022-11-17T11:13:35.816Z,29.1
2022-11-17T11:15:53.098Z,29.8
2022-11-17T11:18:10.207Z,29.2
2022-11-17T11:20:27.230Z,30
2022-11-17T11:22:44.528Z,29
2022-11-17T11:25:01.359Z,29.3
2022-11-17T11:27:18.292Z,29.2
2022-11-17T11:29:35.328Z,29.3
2022-11-17T11:31:52.669Z,29.9
2022-11-17T11:34:10.236Z,29.8
2022-11-17T11:36:27.810Z,29.6
2022-11-17T11:38:44.118Z,30.3
2022-11-17T11:41:00.767Z,29.2
2022-11-17T11:43:17.890Z,29.3
2022-11-17T11:47:51.157Z,29.6
2022-11-17T11:50:07.931Z,29.6
2022-11-17T11:52:24.631Z,29.3
2022-11-17T11:54:43.799Z,28.8
2022-11-17T11:56:58.120Z,29.2
2022-11-17T11:59:15.030Z,29.1
2022-11-17T12:01:31.789Z,29.1
2022-11-17T12:03:48.663Z,28.9
2022-11-17T12:06:05.288Z,29
2022-11-17T12:08:22.069Z,29.2
2022-11-17T12:10:38.741Z,28.9
2022-11-17T12:12:55.629Z,29.1
2022-11-17T12:15:12.400Z,29.6
2022-11-17T12:19:45.855Z,29.6
2022-11-17T12:24:19.467Z,29.9
2022-11-17T12:26:36.144Z,29
2022-11-17T12:28:53.125Z,28.9
2022-11-17T12:31:10.628Z,29.4
2022-11-17T12:33:26.703Z,29.6
2022-11-17T12:35:43.468Z,29.2
2022-11-17T12:38:00.120Z,28.8
2022-11-17T12:40:17.090Z,29.3
2022-11-17T12:42:33.763Z,29.3
2022-11-17T12:44:50.785Z,29.2
2022-11-17T12:47:07.516Z,29.3
2022-11-17T12:49:45.030Z,29.2
2022-11-17T12:52:01.893Z,29.4
2022-11-17T12:54:18.655Z,29.1
2022-11-17T12:56:35.214Z,29.4
2022-11-17T12:58:52.160Z,28.9
2022-11-17T13:01:09.105Z,29
2022-11-17T13:03:26.029Z,29
2022-11-17T13:05:42.879Z,28.8
2022-11-17T13:08:21.939Z,28.8
2022-11-17T13:10:38.699Z,29.4
2022-11-17T13:12:56.139Z,29.2
2022-11-17T13:15:14.571Z,34.3
2022-11-17T13:17:33.290Z,33.6
2022-11-17T13:19:51.998Z,32.5
2022-11-17T13:22:10.734Z,33.4
2022-11-17T13:24:28.967Z,31.9
2022-11-17T13:26:47.332Z,32.6
2022-11-17T13:29:05.939Z,34.3
2022-11-17T13:31:24.945Z,33.1
2022-11-17T13:33:43.673Z,33.9
2022-11-17T13:36:02.292Z,32.4
2022-11-17T13:38:20.744Z,32.8
2022-11-17T13:40:39.677Z,32.8
2022-11-17T13:42:58.466Z,33.9
2022-11-17T13:45:16.851Z,32.8
2022-11-17T13:47:35.166Z,31.9
2022-11-17T13:49:53.550Z,33.4
2022-11-17T13:52:12.083Z,34.7
2022-11-17T13:54:30.329Z,33.1
2022-11-17T13:56:48.546Z,33.4
2022-11-17T13:59:07.263Z,34
2022-11-17T14:01:25.408Z,34.4
2022-11-17T14:03:43.600Z,33.9
2022-11-17T14:06:02.058Z,33.6
2022-11-17T14:08:20.510Z,33.7
2022-11-17T14:10:38.597Z,33.7
2022-11-17T14:12:57.304Z,33.8
2022-11-17T14:15:16.027Z,33.5
2022-11-17T14:17:34.393Z,31.9
2022-11-17T14:19:52.756Z,33.3
2022-11-17T14:22:14.340Z,33.9
2022-11-17T14:24:29.877Z,33.4
2022-11-17T14:26:48.460Z,32.9
2022-11-17T14:29:06.840Z,31.9
2022-11-17T14:31:25.181Z,32.5
2022-11-17T14:33:43.522Z,34.3
2022-11-17T14:36:02.078Z,34.1
2022-11-17T14:38:20.567Z,33.7
2022-11-17T14:40:39.127Z,34.1
2022-11-17T14:42:57.957Z,33.1
2022-11-17T14:45:16.570Z,31.4
2022-11-17T14:49:53.209Z,34.5
2022-11-17T14:52:11.582Z,33.7
2022-11-17T14:54:30.204Z,33
2022-11-17T14:56:49.009Z,33.2
2022-11-17T14:59:07.352Z,31.6
2022-11-17T15:01:25.710Z,33.1
2022-11-17T15:03:44.159Z,32.3
2022-11-17T15:06:20.046Z,34.3
2022-11-17T15:08:36.224Z,33.3
2022-11-17T15:10:54.895Z,33.4
2022-11-17T15:13:12.985Z,34.4
2022-11-17T15:15:31.429Z,33
2022-11-17T15:17:49.744Z,33
2022-11-17T15:20:08.093Z,33.6
2022-11-17T15:22:26.480Z,33.5
2022-11-17T15:24:44.710Z,33.1
2022-11-17T15:27:03.050Z,33
2022-11-17T15:29:21.449Z,33.6
2022-11-17T15:31:39.753Z,33.5
2022-11-17T15:33:58.101Z,33.1
2022-11-17T15:36:16.468Z,32.9
2022-11-17T15:38:35.273Z,33.1
2022-11-17T15:40:54.188Z,32.7
2022-11-17T15:43:13.227Z,32.8
2022-11-17T15:45:31.640Z,31.7
2022-11-17T15:47:50.113Z,32.8
2022-11-17T15:50:08.540Z,32.3
2022-11-17T15:52:41.914Z,32.9
2022-11-17T15:55:02.267Z,33.3
2022-11-17T15:57:21.042Z,32.8
2022-11-17T15:59:39.666Z,31.3
2022-11-17T16:01:58.161Z,32.6
2022-11-17T16:04:16.787Z,33
2022-11-17T16:06:36.007Z,32.4
2022-11-17T16:08:54.721Z,32.6
2022-11-17T16:11:13.070Z,31.3
2022-11-17T16:13:31.773Z,32.6
2022-11-17T16:15:50.184Z,32.7
2022-11-17T16:18:08.576Z,33
2022-11-17T16:22:45.986Z,32.2
2022-11-17T16:25:04.770Z,33.7
2022-11-17T16:27:23.182Z,31.1
2022-11-17T16:29:42.386Z,33.1
2022-11-17T16:32:01.094Z,33.1
2022-11-17T16:34:19.690Z,31.4
2022-11-17T16:36:37.816Z,31.6
2022-11-17T16:39:01.479Z,33.5
2022-11-17T16:41:15.931Z,32.4
2022-11-17T16:43:34.097Z,31.3
2022-11-17T16:45:52.479Z,32.4
2022-11-17T16:48:10.886Z,32.9
2022-11-17T16:52:48.262Z,33.1
2022-11-17T16:57:24.977Z,32.7
2022-11-17T17:02:01.875Z,32.4
2022-11-17T17:04:20.171Z,32.3
2022-11-17T17:06:38.635Z,32.8
2022-11-17T17:08:57.450Z,32.6
2022-11-17T17:13:34.159Z,31.3
2022-11-17T17:15:52.920Z,31.8
2022-11-17T17:18:11.684Z,32.6
2022-11-17T17:20:29.998Z,31.1
2022-11-17T17:22:48.242Z,32.4
2022-11-17T17:25:06.423Z,32.7
2022-11-17T17:29:43.090Z,32.1
2022-11-17T17:32:01.506Z,31.7
2022-11-17T17:34:19.738Z,32.6
2022-11-17T17:36:38.233Z,32.2
2022-11-17T17:41:15.013Z,32.4
2022-11-17T17:43:33.433Z,32.8
2022-11-17T17:45:52.393Z,33.2
2022-11-17T17:48:10.660Z,31.4
2022-11-17T17:50:28.792Z,32.1
2022-11-17T17:52:47.377Z,32.9
2022-11-17T17:55:05.965Z,33
2022-11-17T17:57:24.369Z,32.6
2022-11-17T17:59:42.675Z,32.8
2022-11-17T18:02:01.245Z,33.2
2022-11-17T18:04:19.495Z,32.1
2022-11-17T18:06:37.980Z,32.6
2022-11-17T18:08:56.138Z,32.9
2022-11-17T18:11:14.316Z,31.7
2022-11-17T18:13:32.772Z,32.9
2022-11-17T18:15:51.034Z,32.1
2022-11-17T18:18:09.435Z,32.6
2022-11-17T18:20:27.778Z,32.6
2022-11-17T18:22:46.374Z,33.6
2022-11-17T18:25:07.637Z,32.8
2022-11-17T18:27:22.955Z,32.4
2022-11-17T18:29:41.186Z,32.7
2022-11-17T18:31:59.629Z,32.8
2022-11-17T18:34:17.953Z,31.9
2022-11-17T18:36:36.060Z,32.4
2022-11-17T18:38:54.565Z,32.4
2022-11-17T18:41:12.990Z,32.6
2022-11-17T18:43:31.210Z,33.1
2022-11-17T18:45:49.490Z,32.2
2022-11-17T18:48:08.007Z,32.3
2022-11-17T18:53:02.099Z,32.3
2022-11-17T18:55:20.671Z,32.6
2022-11-17T18:57:43.562Z,32.8
2022-11-17T18:59:57.504Z,31
2022-11-17T19:02:15.807Z,32.1
2022-11-17T19:04:34.016Z,32.5
2022-11-17T19:06:53.133Z,32.3
2022-11-17T19:09:11.266Z,33.8
2022-11-17T19:11:29.513Z,30.6
2022-11-17T19:13:47.754Z,31.7
2022-11-17T19:16:06.009Z,32.6
2022-11-17T19:18:24.189Z,32.9
2022-11-17T19:20:42.471Z,32.6
2022-11-17T19:23:00.917Z,32.8
2022-11-17T19:25:19.738Z,33.4
2022-11-17T19:29:56.121Z,31.7
2022-11-17T19:32:14.375Z,32.6
2022-11-17T19:34:32.561Z,32.7
2022-11-17T19:36:50.850Z,32.7
2022-11-17T19:39:09.091Z,32.6
2022-11-17T19:41:27.260Z,32.4
2022-11-17T19:43:45.784Z,32.2
2022-11-17T19:46:03.825Z,32.3
2022-11-17T19:48:22.008Z,32.9
2022-11-17T19:50:40.430Z,32.7
2022-11-17T19:52:59.145Z,33.3
2022-11-17T19:55:17.854Z,34.4
2022-11-17T19:57:36.160Z,30.5
2022-11-17T19:59:54.522Z,32.2
2022-11-17T20:02:12.785Z,32.4
2022-11-17T20:04:31.645Z,32.9
2022-11-17T20:06:50.291Z,33
2022-11-17T20:09:08.504Z,30.9
2022-11-17T20:11:27.263Z,31.8
2022-11-17T20:13:45.946Z,32.7
2022-11-17T20:16:11.639Z,30.8
2022-11-17T20:18:25.386Z,31.4
2022-11-17T20:20:44.244Z,32.6
2022-11-17T20:23:02.375Z,31.1
2022-11-17T20:27:38.855Z,32.3
2022-11-17T20:29:57.075Z,32.4
2022-11-17T20:32:15.295Z,32.2
2022-11-17T20:34:33.529Z,32.4
2022-11-17T20:36:51.787Z,32.7
2022-11-17T20:39:10.136Z,32.3
2022-11-17T20:41:28.412Z,32.9
2022-11-17T20:43:47.410Z,32.4
2022-11-17T20:46:06.103Z,32.8
2022-11-17T20:48:24.318Z,31.2
2022-11-17T20:50:42.489Z,30.9
2022-11-17T20:53:01.069Z,31.9
2022-11-17T20:55:20.066Z,32.7
2022-11-17T20:57:39.066Z,32.4
2022-11-17T20:59:58.025Z,34.4
2022-11-17T21:02:16.718Z,33.9
2022-11-17T21:04:34.981Z,31.6
2022-11-17T21:06:53.207Z,30.6
2022-11-17T21:09:11.640Z,32.2
2022-11-17T21:11:30.475Z,32.5
2022-11-17T21:13:48.988Z,31.4
2022-11-17T21:16:08.189Z,32.9
2022-11-17T21:18:26.892Z,32.8
2022-11-17T21:20:45.065Z,31.3
2022-11-17T21:23:03.559Z,31.1
2022-11-17T21:25:21.972Z,31.8
2022-11-17T21:27:40.277Z,32.7
2022-11-17T21:29:58.407Z,32.3
2022-11-17T21:32:16.835Z,32.2
2022-11-17T21:36:53.543Z,32.5
2022-11-17T21:39:11.922Z,32.6
2022-11-17T21:41:29.936Z,32.3
2022-11-17T21:43:48.712Z,32.6
2022-11-17T21:46:07.636Z,33.1
2022-11-17T21:50:44.906Z,31.7
2022-11-17T21:55:21.753Z,32.1
2022-11-17T21:59:59.310Z,31.4
2022-11-17T22:02:18.129Z,32.9
2022-11-17T22:04:36.363Z,31.4
2022-11-17T22:06:54.585Z,31.8
2022-11-17T22:09:13.087Z,31.9
2022-11-17T22:11:31.776Z,32.2
2022-11-17T22:13:49.610Z,33.1
2022-11-17T22:16:07.901Z,32.3
2022-11-17T22:18:26.340Z,32.2
2022-11-17T22:20:44.488Z,32.1
2022-11-17T22:23:03.086Z,32.3
2022-11-17T22:25:44.996Z,32.1
2022-11-17T22:27:58.906Z,33.1
2022-11-17T22:30:17.643Z,32.8
2022-11-17T22:32:35.888Z,31.7
2022-11-17T22:34:54.050Z,31.4
2022-11-17T22:37:12.423Z,32.2
2022-11-17T22:39:30.499Z,32.3
2022-11-17T22:41:48.706Z,32.7
2022-11-17T22:44:06.850Z,31.9
2022-11-17T22:46:25.036Z,32.3
2022-11-17T22:48:43.260Z,32.3
2022-11-17T22:51:01.422Z,32.3
2022-11-17T22:53:19.676Z,32.6
2022-11-17T22:57:56.160Z,32.2
2022-11-17T23:00:14.620Z,32.1
2022-11-17T23:02:33.255Z,32.9
2022-11-17T23:04:51.615Z,31.4
2022-11-17T23:07:09.788Z,32
2022-11-17T23:09:27.937Z,32.5
2022-11-17T23:12:08.428Z,32.4
2022-11-17T23:14:26.664Z,31.4
2022-11-17T23:16:44.858Z,32.1
2022-11-17T23:19:03.097Z,32.1
2022-11-17T23:21:21.322Z,32
2022-11-17T23:23:39.511Z,32.4
2022-11-17T23:25:57.656Z,32
2022-11-17T23:28:15.852Z,32.4
2022-11-17T23:30:34.059Z,32.4
2022-11-17T23:32:52.614Z,32.3
2022-11-17T23:35:11.243Z,33.1
2022-11-17T23:37:29.432Z,31.2
2022-11-17T23:39:47.659Z,31.6
2022-11-17T23:42:05.764Z,32.4
2022-11-17T23:44:23.968Z,32
2022-11-17T23:46:42.508Z,31.8
2022-11-17T23:49:01.449Z,33.2
2022-11-17T23:51:19.325Z,30.9
2022-11-17T23:53:37.896Z,31.1
2022-11-17T23:55:56.510Z,32.5
2022-11-17T23:58:14.866Z,31.3
